Latest Weather Observations for Moruya Airport

IDN60801

Issued at 12:02 pm EST Friday 28 August 2015 (issued every 30 minutes, with the page automatically refreshed every 10 minutes)

About weather observations | Map of weather stations | Latest weather observations for NSW | Other Formats
Station Details ID: 069148 Name: MORUYA AIRPORT AWS Lat: -35.90 Lon: 150.14 Height: 4.0 m
Data from the previous 72 hours. | See also: Recent months at Moruya Airport
Date/Time
EST
Temp
°C
App
Temp
°C
Dew
Point
Rel
Hum
%
Delta-T
°C
Wind Press
QNH
hPa
Press
MSL
hPa
Rain
since 9 am
mm
Dir
 
Spd
km/h
Gust
km/h
Spd
kts
Gust
kts
28/12:00pm 16.4 12.1 9.3 63 3.7 SSW 22 24 12 13 1019.2 1019.2 -
28/11:30am 16.6 12.1 10.0 65 3.5 SW 24 32 13 17 1019.3 1019.3 0.0
28/11:00am 16.0 12.4 9.9 67 3.2 SSW 19 28 10 15 1019.3 1019.3 0.0
28/10:30am 15.8 11.2 9.5 66 3.3 SW 24 39 13 21 1019.3 1019.3 0.0
28/10:00am 16.4 12.1 10.9 70 2.9 SW 24 39 13 21 1018.9 1018.9 0.0
28/09:30am 15.1 13.0 11.3 78 2.0 WSW 13 19 7 10 1018.7 1018.7 0.0
28/09:00am 13.7 12.5 11.7 88 1.1 W 9 13 5 7 1018.4 1018.4 5.8
28/08:30am 11.7 10.5 11.7 100 0.0 W 9 11 5 6 1018.4 1018.4 5.8
28/08:00am 10.4 8.9 10.4 100 0.0 W 9 13 5 7 1018.0 1018.0 5.8
28/07:30am 9.9 8.2 9.9 100 0.0 WSW 9 11 5 6 1017.6 1017.6 5.8
28/07:00am 10.0 8.3 10.0 100 0.0 W 9 13 5 7 1017.1 1017.1 5.8
28/06:30am 10.2 8.6 10.2 100 0.0 W 9 15 5 8 1016.7 1016.7 5.8
28/06:00am 10.3 8.7 10.3 100 0.0 W 9 15 5 8 1016.4 1016.4 5.4
28/05:30am 10.7 8.0 10.2 97 0.3 W 15 22 8 12 1016.0 1016.0 4.2
28/05:00am 10.9 8.3 10.6 98 0.2 W 15 20 8 11 1015.8 1015.8 3.6
28/04:30am 10.9 9.4 10.6 98 0.2 W 9 13 5 7 1015.5 1015.5 3.0
28/04:00am 11.1 9.6 10.5 96 0.3 W 9 13 5 7 1015.4 1015.4 2.4
28/03:30am 11.3 9.7 10.2 93 0.6 WSW 9 13 5 7 1015.0 1015.0 2.4
28/03:00am 11.2 9.6 10.1 93 0.6 W 9 13 5 7 1014.8 1014.8 2.4
28/02:30am 11.3 9.8 10.4 94 0.5 W 9 15 5 8 1015.0 1015.0 2.4
28/02:00am 11.2 9.8 11.0 99 0.1 W 9 11 5 6 1015.1 1015.1 2.4
28/01:30am 11.3 10.0 11.3 100 0.0 W 9 15 5 8 1015.3 1015.3 2.4
28/01:00am 11.2 10.3 11.2 100 0.0 W 7 11 4 6 1015.5 1015.5 2.4
28/12:30am 11.7 10.9 11.7 100 0.0 W 7 11 4 6 1015.6 1015.6 2.4
28/12:00am 11.8 10.7 11.8 100 0.0 W 9 13 5 7 1015.8 1015.8 2.4
 
Date/Time
EST
Temp
°C
App
Temp
°C
Dew
Point
Rel
Hum
%
Delta-T
°C
Wind Press
QNH
hPa
Press
MSL
hPa
Rain
since 9 am
mm
Dir
 
Spd
km/h
Gust
km/h
Spd
kts
Gust
kts
27/11:30pm 11.7 10.9 11.7 100 0.0 W 7 11 4 6 1015.8 1015.8 2.2
27/11:00pm 11.1 10.3 11.1 100 0.0 W 6 9 3 5 1016.1 1016.1 2.2
27/10:30pm 11.4 11.8 11.4 100 0.0 CALM 0 0 0 0 1016.3 1016.3 2.2
27/10:00pm 11.5 10.8 11.5 100 0.0 SW 6 6 3 3 1016.4 1016.4 2.2
27/09:30pm 12.0 10.5 12.0 100 0.0 WSW 11 15 6 8 1016.3 1016.3 2.2
27/09:00pm 12.4 11.8 12.4 100 0.0 W 7 13 4 7 1016.4 1016.4 2.2
27/08:30pm 12.7 11.1 12.7 100 0.0 SSW 13 17 7 9 1016.3 1016.3 1.6
27/08:00pm 12.8 11.6 12.8 100 0.0 SW 11 20 6 11 1016.1 1016.1 1.0
27/07:30pm 13.1 11.6 13.1 100 0.0 SSW 13 20 7 11 1015.6 1015.6 1.0
27/07:00pm 14.2 11.9 13.1 93 0.6 SSW 17 26 9 14 1015.2 1015.2 0.0
27/06:30pm 14.9 15.2 14.9 100 0.0 SSE 7 11 4 6 1014.5 1014.5 0.0
27/06:00pm 14.6 13.6 14.6 100 0.0 SSW 13 17 7 9 1014.3 1014.3 0.0
27/05:30pm 15.1 14.7 15.1 100 0.0 SE 11 17 6 9 1013.9 1013.9 0.0
27/05:24pm 15.3 14.6 15.3 100 0.0 ESE 13 17 7 9 1013.8 1013.8 0.0
27/05:11pm 15.6 15.7 15.4 99 0.1 E 9 11 5 6 1013.7 1013.7 0.0
27/05:00pm 15.9 15.9 15.3 96 0.3 NE 9 13 5 7 1013.6 1013.6 0.0
27/04:30pm 16.6 15.5 15.3 92 0.8 NE 15 20 8 11 1013.2 1013.2 0.0
27/04:00pm 16.9 15.9 15.6 92 0.8 ENE 15 19 8 10 1013.3 1013.3 0.0
27/03:30pm 16.4 16.1 15.4 94 0.6 NE 11 15 6 8 1013.7 1013.7 0.0
27/03:00pm 17.2 16.8 15.2 88 1.2 E 11 15 6 8 1013.6 1013.6 0.0
27/02:30pm 17.2 16.9 15.5 90 1.0 E 11 13 6 7 1013.9 1013.9 0.0
27/02:00pm 16.6 15.9 15.3 92 0.8 ENE 13 15 7 8 1014.3 1014.3 0.0
27/01:30pm 16.1 15.6 15.0 93 0.6 NE 11 15 6 8 1014.6 1014.6 0.0
27/01:00pm 16.0 15.5 14.9 93 0.6 ENE 11 13 6 7 1014.9 1014.9 0.0
27/12:30pm 16.0 15.4 14.5 91 0.9 E 11 11 6 6 1015.4 1015.4 0.0
27/12:00pm 16.3 15.7 14.5 89 1.0 ESE 11 13 6 7 1016.1 1016.1 0.0
27/11:30am 17.4 17.5 14.5 83 1.7 E 7 11 4 6 1016.8 1016.8 0.0
27/11:00am 17.8 18.1 14.9 83 1.7 W 7 11 4 6 1017.3 1017.3 0.0
27/10:30am 17.1 17.6 15.1 88 1.2 WSW 6 11 3 6 1017.8 1017.8 0.0
27/10:00am 16.0 15.6 15.2 95 0.5 SW 11 13 6 7 1017.8 1017.8 0.0
27/09:30am 14.9 14.8 14.9 100 0.0 WSW 9 11 5 6 1018.4 1018.4 0.0
27/09:00am 14.1 14.1 14.1 100 0.0 W 7 11 4 6 1018.8 1018.8 15.4
27/08:30am 13.2 12.9 13.2 100 0.0 W 7 11 4 6 1019.0 1019.0 15.4
27/08:00am 12.8 12.3 12.8 100 0.0 SW 7 11 4 6 1019.0 1019.0 15.4
27/07:30am 12.4 11.8 12.4 100 0.0 W 7 11 4 6 1019.0 1019.0 15.2
27/07:00am 12.1 11.4 12.1 100 0.0 W 7 9 4 5 1018.9 1018.9 15.2
27/06:30am 11.8 10.7 11.8 100 0.0 WSW 9 11 5 6 1018.5 1018.5 15.2
27/06:00am 12.0 10.9 12.0 100 0.0 SW 9 11 5 6 1018.7 1018.7 15.2
27/05:30am 12.3 11.3 12.3 100 0.0 WSW 9 13 5 7 1018.7 1018.7 15.2
27/05:00am 12.4 11.1 12.4 100 0.0 W 11 15 6 8 1019.0 1019.0 15.2
27/04:30am 12.6 11.3 12.6 100 0.0 WSW 11 17 6 9 1018.6 1018.6 15.2
27/04:00am 12.5 11.2 12.5 100 0.0 WSW 11 15 6 8 1018.6 1018.6 15.2
27/03:30am 12.6 11.3 12.6 100 0.0 W 11 15 6 8 1019.1 1019.1 15.2
27/03:00am 12.7 11.5 12.7 100 0.0 W 11 19 6 10 1019.5 1019.5 15.2
27/02:38am 12.6 10.9 12.6 100 0.0 WSW 13 17 7 9 1019.5 1019.5 15.2
27/02:30am 12.6 11.3 12.6 100 0.0 WSW 11 17 6 9 1019.8 1019.8 15.2
27/02:22am 12.7 11.5 12.7 100 0.0 WSW 11 15 6 8 1020.0 1020.0 15.0
27/02:05am 12.7 11.5 12.7 100 0.0 WSW 11 17 6 9 1020.2 1020.2 14.8
27/02:01am 12.8 11.6 12.8 100 0.0 WSW 11 17 6 9 1020.2 1020.2 14.8
27/02:00am 12.7 11.5 12.7 100 0.0 WSW 11 17 6 9 1020.2 1020.2 14.6
27/01:47am 12.8 12.0 12.8 100 0.0 WSW 9 13 5 7 1020.4 1020.4 14.6
27/01:44am 12.8 12.0 12.8 100 0.0 WSW 9 13 5 7 1020.4 1020.4 14.6
27/01:30am 12.8 11.6 12.8 100 0.0 WSW 11 17 6 9 1020.4 1020.4 14.4
27/01:08am 12.7 11.1 12.7 100 0.0 WSW 13 19 7 10 1020.6 1020.6 14.4
27/01:00am 12.7 11.1 12.7 100 0.0 WSW 13 17 7 9 1020.7 1020.7 14.4
27/12:49am 12.7 11.5 12.7 100 0.0 WSW 11 17 6 9 1020.9 1020.9 14.2
27/12:30am 12.7 11.5 12.7 100 0.0 WSW 11 15 6 8 1021.0 1021.0 14.0
27/12:00am 12.6 11.3 12.6 100 0.0 WSW 11 15 6 8 1021.3 1021.3 14.0
 
Date/Time
EST
Temp
°C
App
Temp
°C
Dew
Point
Rel
Hum
%
Delta-T
°C
Wind Press
QNH
hPa
Press
MSL
hPa
Rain
since 9 am
mm
Dir
 
Spd
km/h
Gust
km/h
Spd
kts
Gust
kts
26/11:30pm 12.5 11.2 12.5 100 0.0 WSW 11 17 6 9 1021.4 1021.4 14.0
26/11:00pm 12.4 10.7 12.4 100 0.0 WSW 13 15 7 8 1021.8 1021.8 14.0
26/10:30pm 12.7 11.5 12.7 100 0.0 WSW 11 15 6 8 1022.2 1022.2 14.0
26/10:00pm 13.1 11.6 13.1 100 0.0 SW 13 17 7 9 1022.6 1022.6 14.0
26/09:47pm 13.2 11.4 13.2 100 0.0 SW 15 20 8 11 1022.8 1022.8 14.0
26/09:31pm 13.3 11.5 13.3 100 0.0 SSW 15 20 8 11 1022.9 1022.9 13.8
26/09:30pm 13.3 11.5 13.3 100 0.0 SSW 15 20 8 11 1023.0 1023.0 13.8
26/09:00pm 13.3 11.9 13.3 100 0.0 SW 13 20 7 11 1023.0 1023.0 13.4
26/08:37pm 13.2 11.4 13.2 100 0.0 SW 15 20 8 11 1023.1 1023.1 13.4
26/08:30pm 13.3 11.5 13.3 100 0.0 SW 15 20 8 11 1023.0 1023.0 13.4
26/08:00pm 13.5 11.4 13.5 100 0.0 SW 17 22 9 12 1022.9 1022.9 13.4
26/07:59pm 13.5 11.0 13.5 100 0.0 SW 19 22 10 12 1022.9 1022.9 13.4
26/07:30pm 13.5 11.8 13.5 100 0.0 SSW 15 20 8 11 1022.7 1022.7 13.4
26/07:00pm 13.6 12.3 13.6 100 0.0 SW 13 20 7 11 1022.6 1022.6 13.4
26/06:33pm 13.5 12.1 13.5 100 0.0 SSW 13 17 7 9 1022.6 1022.6 13.4
26/06:30pm 13.5 12.1 13.5 100 0.0 SSW 13 17 7 9 1022.6 1022.6 13.2
26/06:24pm 13.5 12.5 13.5 100 0.0 SSW 11 17 6 9 1022.6 1022.6 13.2
26/06:00pm 13.4 11.2 13.4 100 0.0 SW 17 20 9 11 1022.5 1022.5 10.6
26/05:57pm 13.4 11.6 13.4 100 0.0 SW 15 20 8 11 1022.5 1022.5 10.2
26/05:32pm 13.5 11.4 13.5 100 0.0 SSW 17 24 9 13 1022.1 1022.1 8.0
26/05:30pm 13.6 11.9 13.6 100 0.0 SSW 15 24 8 13 1022.1 1022.1 7.6
26/05:11pm 13.7 11.6 13.7 100 0.0 SSW 17 20 9 11 1022.1 1022.1 7.2
26/05:09pm 13.8 11.8 13.8 100 0.0 SSW 17 20 9 11 1022.1 1022.1 7.2
26/05:00pm 13.9 11.5 13.9 100 0.0 S 19 28 10 15 1022.1 1022.1 7.2
26/04:58pm 13.9 11.5 13.9 100 0.0 S 19 28 10 15 1022.1 1022.1 7.2
26/04:57pm 13.8 11.4 13.8 100 0.0 SSW 19 28 10 15 1022.1 1022.1 7.2
26/04:42pm 13.8 11.8 13.8 100 0.0 SSW 17 26 9 14 1022.0 1022.0 6.8
26/04:30pm 13.7 11.6 13.7 100 0.0 SSW 17 24 9 13 1022.1 1022.1 6.8
26/04:00pm 13.7 11.6 13.7 100 0.0 SSW 17 24 9 13 1022.3 1022.3 5.8
26/03:46pm 13.8 11.8 13.8 100 0.0 SSW 17 28 9 15 1022.1 1022.1 5.6
26/03:33pm 13.8 12.2 13.8 100 0.0 SSW 15 24 8 13 1022.2 1022.2 5.6
26/03:30pm 13.8 11.4 13.8 100 0.0 SSW 19 26 10 14 1022.2 1022.2 5.4
26/03:22pm 14.0 11.5 14.0 100 0.0 S 20 32 11 17 1022.2 1022.2 4.8
26/03:14pm 14.3 11.9 14.3 100 0.0 SSW 20 28 11 15 1022.2 1022.2 4.6
26/03:00pm 14.0 12.0 14.0 100 0.0 SSW 17 26 9 14 1022.2 1022.2 4.4
26/02:30pm 14.3 11.9 14.3 100 0.0 SSW 20 28 11 15 1022.2 1022.2 4.2
26/02:00pm 14.3 12.1 14.3 100 0.0 SSW 19 26 10 14 1022.4 1022.4 4.2
26/01:30pm 14.2 11.4 14.2 100 0.0 S 22 30 12 16 1022.6 1022.6 4.2
26/01:00pm 14.3 12.1 14.3 100 0.0 S 19 26 10 14 1022.8 1022.8 4.2
26/12:37pm 14.5 12.7 14.5 100 0.0 S 17 26 9 14 1023.3 1023.3 3.4
26/12:30pm 14.7 13.0 14.7 100 0.0 S 17 24 9 13 1023.2 1023.2 2.6
26/12:20pm 14.6 12.5 14.6 100 0.0 S 19 26 10 14 1023.3 1023.3 2.6
26/12:00pm 13.8 10.8 13.8 100 0.0 SSE 22 35 12 19 1023.7 1023.7 2.2
26/11:30am 14.4 12.2 14.4 100 0.0 S 19 28 10 15 1024.1 1024.1 1.4
26/11:29am 14.4 12.2 14.4 100 0.0 S 19 28 10 15 1024.1 1024.1 1.4
26/11:15am 14.3 11.1 14.3 100 0.0 SSE 24 35 13 19 1024.2 1024.2 1.4
26/11:00am 15.2 12.3 15.2 100 0.0 SSE 24 35 13 19 1024.1 1024.1 1.0
26/10:30am 14.5 11.4 14.5 100 0.0 SSE 24 33 13 18 1024.3 1024.3 1.0
26/10:24am 14.3 11.9 14.3 100 0.0 S 20 32 11 17 1024.2 1024.2 1.0
26/10:00am 13.7 10.3 13.7 100 0.0 SSE 24 41 13 22 1024.6 1024.6 0.6
26/09:59am 13.8 10.4 13.8 100 0.0 SSE 24 41 13 22 1024.6 1024.6 0.4
26/09:30am 13.9 10.6 13.9 100 0.0 S 24 37 13 20 1024.3 1024.3 0.0
26/09:00am 13.6 9.0 13.6 100 0.0 SSE 30 41 16 22 1024.2 1024.2 91.0
26/08:47am 14.1 10.1 14.1 100 0.0 SSE 28 46 15 25 1024.2 1024.2 91.0
26/08:30am 13.5 10.0 13.5 100 0.0 S 24 35 13 19 1024.1 1024.1 91.0
26/08:23am 13.4 9.2 13.4 100 0.0 S 28 41 15 22 1024.1 1024.1 91.0
26/08:03am 13.4 9.2 13.4 100 0.0 SSE 28 48 15 26 1024.2 1024.2 90.8
26/08:00am 13.6 9.8 13.6 100 0.0 SSE 26 48 14 26 1024.2 1024.2 90.6
26/07:58am 13.8 10.4 13.8 100 0.0 SSE 24 35 13 19 1024.0 1024.0 89.8
26/07:30am 13.1 10.5 13.1 100 0.0 SSW 19 35 10 19 1023.8 1023.8 89.4
26/07:27am 12.5 10.1 12.5 100 0.0 SSW 17 22 9 12 1023.9 1023.9 89.4
26/07:16am 12.4 9.5 12.4 100 0.0 SSW 19 33 10 18 1023.7 1023.7 89.4
26/07:06am 12.3 9.8 12.3 100 0.0 SSW 17 20 9 11 1023.9 1023.9 89.2
26/07:00am 12.2 9.3 12.2 100 0.0 SW 19 24 10 13 1023.7 1023.7 89.2
26/06:51am 12.3 9.4 12.3 100 0.0 SSW 19 26 10 14 1023.5 1023.5 89.0
26/06:43am 12.2 9.3 12.2 100 0.0 SSW 19 24 10 13 1023.5 1023.5 88.6
26/06:30am 12.3 8.8 12.3 100 0.0 SSW 22 32 12 17 1023.4 1023.4 88.6
26/06:28am 12.3 8.8 12.3 100 0.0 S 22 32 12 17 1023.4 1023.4 88.6
26/06:00am 12.3 8.5 12.3 100 0.0 S 24 35 13 19 1023.2 1023.2 87.2
26/05:30am 12.6 8.5 12.6 100 0.0 S 26 33 14 18 1022.9 1022.9 85.4
26/05:00am 12.6 8.9 12.6 100 0.0 S 24 37 13 20 1022.7 1022.7 84.2
26/04:55am 12.6 8.9 12.6 100 0.0 S 24 35 13 19 1022.7 1022.7 84.0
26/04:44am 12.7 8.6 12.7 100 0.0 S 26 33 14 18 1022.9 1022.9 81.2
26/04:38am 12.6 8.1 12.6 100 0.0 SSE 28 46 15 25 1022.9 1022.9 81.0
26/04:30am 12.7 7.5 12.7 100 0.0 SSE 32 46 17 25 1022.8 1022.8 81.0
26/04:00am 12.5 8.0 12.5 100 0.0 S 28 39 15 21 1022.2 1022.2 80.0
26/03:30am 12.5 7.2 12.5 100 0.0 S 32 46 17 25 1022.2 1022.2 79.0
26/03:20am 12.5 8.0 12.5 100 0.0 S 28 37 15 20 1022.1 1022.1 78.4
26/03:12am 12.4 7.5 12.4 100 0.0 S 30 44 16 24 1022.1 1022.1 78.0
26/03:08am 12.4 7.1 12.4 100 0.0 S 32 50 17 27 1022.1 1022.1 77.8
26/03:07am 12.4 7.1 12.4 100 0.0 S 32 50 17 27 1022.1 1022.1 77.8
26/03:06am 12.4 6.9 12.4 100 0.0 S 33 50 18 27 1022.1 1022.1 77.8
26/03:05am 12.5 7.2 12.5 100 0.0 S 32 50 17 27 1022.1 1022.1 77.6
26/03:00am 12.5 7.0 12.5 100 0.0 S 33 44 18 24 1022.2 1022.2 77.6
26/02:52am 12.5 6.6 12.5 100 0.0 S 35 46 19 25 1022.3 1022.3 77.4
26/02:48am 12.5 7.0 12.5 100 0.0 S 33 46 18 25 1022.3 1022.3 77.2
26/02:30am 12.5 6.3 12.5 100 0.0 SSE 37 54 20 29 1022.4 1022.4 77.0
26/02:00am 12.5 7.6 12.5 100 0.0 S 30 48 16 26 1022.5 1022.5 74.6
26/01:38am 12.4 7.8 12.4 100 0.0 S 28 48 15 26 1023.0 1023.0 72.4
26/01:30am 12.2 7.2 12.2 100 0.0 S 30 44 16 24 1022.9 1022.9 70.2
26/01:00am 12.1 6.1 12.1 100 0.0 S 35 48 19 26 1022.8 1022.8 68.0
26/12:47am 12.1 6.1 12.1 100 0.0 S 35 50 19 27 1023.0 1023.0 67.4
26/12:45am 12.1 6.1 12.1 100 0.0 S 35 50 19 27 1023.0 1023.0 67.4
26/12:44am 12.1 6.5 12.1 100 0.0 S 33 50 18 27 1023.0 1023.0 67.2
26/12:38am 12.1 6.7 12.1 100 0.0 S 32 50 17 27 1022.8 1022.8 67.0
26/12:30am 12.4 7.1 12.4 100 0.0 S 32 43 17 23 1022.8 1022.8 67.0
26/12:00am 12.6 7.3 12.6 100 0.0 S 32 52 17 28 1023.0 1023.0 65.0
 
Date/Time
EST
Temp
°C
App
Temp
°C
Dew
Point
Rel
Hum
%
Delta-T
°C
Wind Press
QNH
hPa
Press
MSL
hPa
Rain
since 9 am
mm
Dir
 
Spd
km/h
Gust
km/h
Spd
kts
Gust
kts
25/11:49pm 12.6 7.7 12.6 100 0.0 S 30 50 16 27 1023.0 1023.0 64.2
25/11:48pm 12.6 7.7 12.6 100 0.0 S 30 50 16 27 1022.9 1022.9 64.0
25/11:47pm 12.6 7.7 12.6 100 0.0 S 30 50 16 27 1022.9 1022.9 64.0
25/11:34pm 12.6 7.3 12.6 100 0.0 S 32 46 17 25 1022.8 1022.8 62.8
25/11:30pm 12.6 7.7 12.6 100 0.0 S 30 46 16 25 1022.8 1022.8 62.6
25/11:26pm 12.7 8.2 12.7 100 0.0 S 28 37 15 20 1022.8 1022.8 62.6
25/11:00pm 12.6 7.3 12.6 100 0.0 S 32 50 17 27 1022.8 1022.8 61.4
25/10:56pm 12.6 7.3 12.6 100 0.0 S 32 50 17 27 1022.8 1022.8 61.0
25/10:44pm 12.6 7.3 12.6 100 0.0 S 32 48 17 26 1022.8 1022.8 60.6
25/10:35pm 12.7 7.8 12.7 100 0.0 S 30 48 16 26 1022.7 1022.7 60.2
25/10:30pm 12.6 7.7 12.6 100 0.0 S 30 41 16 22 1022.8 1022.8 60.0
25/10:26pm 12.6 7.7 12.6 100 0.0 S 30 44 16 24 1022.9 1022.9 59.8
25/10:14pm 12.6 7.7 12.6 100 0.0 S 30 43 16 23 1022.9 1022.9 59.8
25/10:02pm 12.4 6.9 12.4 100 0.0 SSE 33 44 18 24 1023.1 1023.1 59.2
25/10:00pm 12.5 7.2 12.5 100 0.0 SSE 32 44 17 24 1023.1 1023.1 59.0
25/09:30pm 12.4 7.1 12.4 100 0.0 S 32 44 17 24 1023.0 1023.0 54.6
25/09:00pm 12.8 8.7 12.8 100 0.0 S 26 37 14 20 1022.8 1022.8 54.2
25/08:31pm 12.7 7.8 12.7 100 0.0 SSE 30 48 16 26 1022.7 1022.7 54.0
25/08:30pm 12.6 7.7 12.6 100 0.0 SSE 30 43 16 23 1022.8 1022.8 54.0
25/08:17pm 12.3 7.7 12.3 100 0.0 SSE 28 39 15 21 1022.8 1022.8 53.8
25/08:00pm 12.5 7.2 12.5 100 0.0 SSE 32 46 17 25 1022.8 1022.8 53.4
25/07:38pm 12.6 7.7 12.6 100 0.0 SE 30 48 16 26 1022.7 1022.7 52.4
25/07:30pm 12.9 7.2 12.9 100 0.0 SE 35 50 19 27 1022.7 1022.7 51.8
25/07:24pm 12.7 7.8 12.4 98 0.2 SE 30 48 16 26 1022.6 1022.6 51.4
25/07:19pm 12.7 7.8 11.3 91 0.7 SE 28 41 15 22 1022.5 1022.5 50.6
25/07:01pm 13.8 8.5 13.0 95 0.4 SSE 33 52 18 28 1022.0 1022.0 50.2
25/07:00pm 13.9 8.6 13.1 95 0.4 SSE 33 46 18 25 1022.0 1022.0 50.2
25/06:30pm 13.6 8.1 13.6 100 0.0 SSE 35 50 19 27 1021.6 1021.6 50.0
25/06:00pm 13.5 8.5 13.5 100 0.0 S 32 50 17 27 1021.2 1021.2 49.0
25/05:55pm 13.4 8.4 13.4 100 0.0 S 32 50 17 27 1021.1 1021.1 48.8
25/05:38pm 13.4 8.8 13.4 100 0.0 S 30 43 16 23 1020.7 1020.7 48.4
25/05:30pm 13.1 8.4 13.1 100 0.0 S 30 44 16 24 1020.6 1020.6 48.0
25/05:07pm 13.1 8.0 13.1 100 0.0 S 32 50 17 27 1020.4 1020.4 46.8
25/05:00pm 13.3 7.3 13.3 100 0.0 SSE 37 52 20 28 1020.2 1020.2 46.2
25/04:43pm 12.8 8.0 12.8 100 0.0 S 30 52 16 28 1020.1 1020.1 45.6
25/04:34pm 12.7 8.2 12.7 100 0.0 SSW 28 39 15 21 1020.1 1020.1 45.0
25/04:30pm 12.7 7.8 12.7 100 0.0 S 30 41 16 22 1020.0 1020.0 44.8
25/04:00pm 12.4 6.5 12.4 100 0.0 SSW 35 50 19 27 1019.6 1019.6 43.2
25/03:49pm 12.1 6.7 12.1 100 0.0 SSW 32 50 17 27 1019.3 1019.3 42.2
25/03:30pm 12.1 5.7 12.1 100 0.0 S 37 54 20 29 1019.1 1019.1 39.4
25/03:12pm 11.8 7.0 11.8 100 0.0 SSW 28 48 15 26 1019.1 1019.1 37.0
25/03:00pm 11.4 6.5 11.4 100 0.0 SSW 28 39 15 21 1019.1 1019.1 35.4
25/02:47pm 11.3 6.4 11.3 100 0.0 SSW 28 46 15 25 1019.0 1019.0 33.0
25/02:30pm 11.2 5.5 11.2 100 0.0 SSW 32 43 17 23 1018.9 1018.9 29.8
25/02:00pm 11.3 6.4 11.3 100 0.0 SSW 28 44 15 24 1018.9 1018.9 25.2
25/01:30pm 11.2 5.9 11.2 100 0.0 SSW 30 44 16 24 1019.1 1019.1 21.4
25/01:00pm 11.3 6.0 11.3 100 0.0 SSW 30 43 16 23 1019.1 1019.1 18.0
25/12:30pm 11.5 6.7 11.5 100 0.0 SSW 28 46 15 25 1019.3 1019.3 14.8

Other Formats:

Comma delimited format used in spreadsheet applications
http://www.bom.gov.au/fwo/IDN60801/IDN60801.95937.axf

JavaScript Object Notation format (JSON) in row-major order
http://www.bom.gov.au/fwo/IDN60801/IDN60801.95937.json